sensor_id;sensor_type;location;lat;lon;timestamp;P1;durP1;ratioP1;P2;durP2;ratioP2
16963;SDS011;8598;50.508;10.436;2023-06-10T00:02:13;11.60;;;8.57;;
16963;SDS011;8598;50.508;10.436;2023-06-10T00:04:41;10.00;;;9.00;;
16963;SDS011;8598;50.508;10.436;2023-06-10T00:07:08;11.57;;;8.83;;
16963;SDS011;8598;50.508;10.436;2023-06-10T00:09:35;9.40;;;8.40;;
16963;SDS011;8598;50.508;10.436;2023-06-10T00:12:02;11.37;;;9.47;;
16963;SDS011;8598;50.508;10.436;2023-06-10T00:14:29;10.87;;;8.70;;
16963;SDS011;8598;50.508;10.436;2023-06-10T00:16:57;10.00;;;8.53;;
16963;SDS011;8598;50.508;10.436;2023-06-10T00:19:24;9.17;;;8.20;;
16963;SDS011;8598;50.508;10.436;2023-06-10T00:21:55;13.13;;;9.27;;
16963;SDS011;8598;50.508;10.436;2023-06-10T00:24:22;12.13;;;9.60;;
16963;SDS011;8598;50.508;10.436;2023-06-10T00:26:49;11.33;;;8.40;;
16963;SDS011;8598;50.508;10.436;2023-06-10T00:29:15;11.33;;;8.40;;
16963;SDS011;8598;50.508;10.436;2023-06-10T00:31:45;11.43;;;8.87;;
16963;SDS011;8598;50.508;10.436;2023-06-10T00:34:13;11.53;;;9.27;;
16963;SDS011;8598;50.508;10.436;2023-06-10T00:36:40;14.87;;;9.63;;
16963;SDS011;8598;50.508;10.436;2023-06-10T00:39:08;14.73;;;9.77;;
16963;SDS011;8598;50.508;10.436;2023-06-10T00:41:34;11.03;;;9.03;;
16963;SDS011;8598;50.508;10.436;2023-06-10T00:44:01;12.87;;;9.40;;
16963;SDS011;8598;50.508;10.436;2023-06-10T00:46:28;11.67;;;8.57;;
16963;SDS011;8598;50.508;10.436;2023-06-10T00:48:57;14.13;;;9.50;;
16963;SDS011;8598;50.508;10.436;2023-06-10T00:51:25;12.27;;;9.30;;
16963;SDS011;8598;50.508;10.436;2023-06-10T00:53:52;16.33;;;9.50;;
16963;SDS011;8598;50.508;10.436;2023-06-10T00:56:20;11.17;;;8.87;;
16963;SDS011;8598;50.508;10.436;2023-06-10T00:58:47;13.93;;;9.33;;
16963;SDS011;8598;50.508;10.436;2023-06-10T01:01:13;12.77;;;9.53;;
16963;SDS011;8598;50.508;10.436;2023-06-10T01:03:40;14.37;;;9.20;;
16963;SDS011;8598;50.508;10.436;2023-06-10T01:06:09;13.27;;;10.40;;
16963;SDS011;8598;50.508;10.436;2023-06-10T01:08:46;13.20;;;8.97;;
16963;SDS011;8598;50.508;10.436;2023-06-10T01:11:23;12.87;;;9.50;;
16963;SDS011;8598;50.508;10.436;2023-06-10T01:13:54;13.23;;;9.20;;
16963;SDS011;8598;50.508;10.436;2023-06-10T01:16:23;14.27;;;9.67;;
16963;SDS011;8598;50.508;10.436;2023-06-10T01:18:50;14.83;;;9.87;;
16963;SDS011;8598;50.508;10.436;2023-06-10T01:21:20;14.07;;;11.40;;
16963;SDS011;8598;50.508;10.436;2023-06-10T01:23:49;12.90;;;9.57;;
16963;SDS011;8598;50.508;10.436;2023-06-10T01:26:16;13.70;;;9.67;;
16963;SDS011;8598;50.508;10.436;2023-06-10T01:28:45;15.17;;;10.40;;
16963;SDS011;8598;50.508;10.436;2023-06-10T01:31:20;18.70;;;10.17;;
16963;SDS011;8598;50.508;10.436;2023-06-10T01:33:59;14.57;;;9.63;;
16963;SDS011;8598;50.508;10.436;2023-06-10T01:36:28;12.10;;;9.63;;
16963;SDS011;8598;50.508;10.436;2023-06-10T01:38:56;12.53;;;9.47;;
16963;SDS011;8598;50.508;10.436;2023-06-10T01:41:24;14.03;;;9.77;;
16963;SDS011;8598;50.508;10.436;2023-06-10T01:43:51;12.00;;;9.60;;
16963;SDS011;8598;50.508;10.436;2023-06-10T01:46:18;12.97;;;9.30;;
16963;SDS011;8598;50.508;10.436;2023-06-10T01:48:47;14.80;;;9.80;;
16963;SDS011;8598;50.508;10.436;2023-06-10T01:51:14;14.60;;;10.90;;
16963;SDS011;8598;50.508;10.436;2023-06-10T01:53:42;14.43;;;10.30;;
16963;SDS011;8598;50.508;10.436;2023-06-10T01:56:09;11.60;;;9.40;;
16963;SDS011;8598;50.508;10.436;2023-06-10T01:58:41;14.40;;;10.50;;
16963;SDS011;8598;50.508;10.436;2023-06-10T02:01:08;13.37;;;10.37;;
16963;SDS011;8598;50.508;10.436;2023-06-10T02:03:35;15.23;;;9.97;;
16963;SDS011;8598;50.508;10.436;2023-06-10T02:06:01;14.93;;;11.27;;
16963;SDS011;8598;50.508;10.436;2023-06-10T02:08:28;23.53;;;10.97;;
16963;SDS011;8598;50.508;10.436;2023-06-10T02:10:56;14.80;;;10.30;;
16963;SDS011;8598;50.508;10.436;2023-06-10T02:13:23;15.73;;;10.30;;
16963;SDS011;8598;50.508;10.436;2023-06-10T02:15:49;13.47;;;10.03;;
16963;SDS011;8598;50.508;10.436;2023-06-10T02:18:18;12.17;;;9.60;;
16963;SDS011;8598;50.508;10.436;2023-06-10T02:20:45;15.13;;;10.43;;
16963;SDS011;8598;50.508;10.436;2023-06-10T02:23:12;14.70;;;9.53;;
16963;SDS011;8598;50.508;10.436;2023-06-10T02:25:39;15.50;;;10.77;;
16963;SDS011;8598;50.508;10.436;2023-06-10T02:28:07;13.23;;;10.47;;
16963;SDS011;8598;50.508;10.436;2023-06-10T02:30:33;13.37;;;9.63;;
16963;SDS011;8598;50.508;10.436;2023-06-10T02:33:00;13.93;;;9.93;;
16963;SDS011;8598;50.508;10.436;2023-06-10T02:35:27;14.10;;;10.50;;
16963;SDS011;8598;50.508;10.436;2023-06-10T02:37:53;13.67;;;10.57;;
16963;SDS011;8598;50.508;10.436;2023-06-10T02:40:20;12.47;;;9.40;;
16963;SDS011;8598;50.508;10.436;2023-06-10T02:42:47;13.03;;;9.60;;
16963;SDS011;8598;50.508;10.436;2023-06-10T02:45:15;13.63;;;9.10;;
16963;SDS011;8598;50.508;10.436;2023-06-10T02:47:41;14.00;;;9.03;;
16963;SDS011;8598;50.508;10.436;2023-06-10T02:50:08;14.97;;;9.40;;
16963;SDS011;8598;50.508;10.436;2023-06-10T02:52:35;13.17;;;8.97;;
16963;SDS011;8598;50.508;10.436;2023-06-10T02:55:02;13.80;;;9.30;;
16963;SDS011;8598;50.508;10.436;2023-06-10T02:57:28;17.80;;;9.07;;
16963;SDS011;8598;50.508;10.436;2023-06-10T02:59:55;12.63;;;9.17;;
16963;SDS011;8598;50.508;10.436;2023-06-10T03:02:24;16.43;;;9.13;;
16963;SDS011;8598;50.508;10.436;2023-06-10T03:04:53;19.30;;;9.53;;
16963;SDS011;8598;50.508;10.436;2023-06-10T03:07:20;17.30;;;9.53;;
16963;SDS011;8598;50.508;10.436;2023-06-10T03:09:46;11.60;;;8.97;;
16963;SDS011;8598;50.508;10.436;2023-06-10T03:12:13;11.03;;;8.83;;
16963;SDS011;8598;50.508;10.436;2023-06-10T03:14:40;14.43;;;8.67;;
16963;SDS011;8598;50.508;10.436;2023-06-10T03:17:07;11.27;;;8.30;;
16963;SDS011;8598;50.508;10.436;2023-06-10T03:19:35;9.23;;;7.63;;
16963;SDS011;8598;50.508;10.436;2023-06-10T03:22:07;10.97;;;7.87;;
16963;SDS011;8598;50.508;10.436;2023-06-10T03:24:35;12.73;;;8.43;;
16963;SDS011;8598;50.508;10.436;2023-06-10T03:27:05;11.37;;;8.30;;
16963;SDS011;8598;50.508;10.436;2023-06-10T03:29:32;11.17;;;8.30;;
16963;SDS011;8598;50.508;10.436;2023-06-10T03:31:59;12.10;;;7.67;;
16963;SDS011;8598;50.508;10.436;2023-06-10T03:34:26;9.60;;;7.70;;
16963;SDS011;8598;50.508;10.436;2023-06-10T03:36:54;12.10;;;8.00;;
16963;SDS011;8598;50.508;10.436;2023-06-10T03:39:20;13.30;;;7.83;;
16963;SDS011;8598;50.508;10.436;2023-06-10T03:41:48;9.97;;;7.57;;
16963;SDS011;8598;50.508;10.436;2023-06-10T03:44:14;10.07;;;7.83;;
16963;SDS011;8598;50.508;10.436;2023-06-10T03:46:41;10.20;;;7.40;;
16963;SDS011;8598;50.508;10.436;2023-06-10T03:49:08;10.37;;;7.50;;
16963;SDS011;8598;50.508;10.436;2023-06-10T03:51:35;10.67;;;7.50;;
16963;SDS011;8598;50.508;10.436;2023-06-10T03:54:03;9.50;;;7.13;;
16963;SDS011;8598;50.508;10.436;2023-06-10T03:56:30;11.03;;;7.73;;
16963;SDS011;8598;50.508;10.436;2023-06-10T03:58:57;10.13;;;6.60;;
16963;SDS011;8598;50.508;10.436;2023-06-10T04:01:23;9.23;;;7.33;;
16963;SDS011;8598;50.508;10.436;2023-06-10T04:03:50;8.43;;;7.23;;
16963;SDS011;8598;50.508;10.436;2023-06-10T04:06:19;8.50;;;6.60;;
16963;SDS011;8598;50.508;10.436;2023-06-10T04:08:47;9.63;;;6.73;;
16963;SDS011;8598;50.508;10.436;2023-06-10T04:11:15;11.10;;;7.77;;
16963;SDS011;8598;50.508;10.436;2023-06-10T04:13:42;8.93;;;7.57;;
16963;SDS011;8598;50.508;10.436;2023-06-10T04:16:08;9.67;;;6.67;;
16963;SDS011;8598;50.508;10.436;2023-06-10T04:18:35;8.07;;;6.97;;
16963;SDS011;8598;50.508;10.436;2023-06-10T04:21:02;9.50;;;6.87;;
16963;SDS011;8598;50.508;10.436;2023-06-10T04:23:28;9.73;;;6.57;;
16963;SDS011;8598;50.508;10.436;2023-06-10T04:25:55;12.33;;;7.60;;
16963;SDS011;8598;50.508;10.436;2023-06-10T04:28:23;10.17;;;6.73;;
16963;SDS011;8598;50.508;10.436;2023-06-10T04:30:50;11.67;;;7.17;;
16963;SDS011;8598;50.508;10.436;2023-06-10T04:33:16;11.23;;;7.07;;
16963;SDS011;8598;50.508;10.436;2023-06-10T04:35:43;8.90;;;7.10;;
16963;SDS011;8598;50.508;10.436;2023-06-10T04:38:09;13.90;;;7.93;;
16963;SDS011;8598;50.508;10.436;2023-06-10T04:40:36;15.80;;;7.47;;
16963;SDS011;8598;50.508;10.436;2023-06-10T04:43:03;10.50;;;7.10;;
16963;SDS011;8598;50.508;10.436;2023-06-10T04:45:31;8.90;;;7.20;;
16963;SDS011;8598;50.508;10.436;2023-06-10T04:47:57;8.87;;;7.10;;
16963;SDS011;8598;50.508;10.436;2023-06-10T04:50:24;10.20;;;6.93;;
16963;SDS011;8598;50.508;10.436;2023-06-10T04:52:51;9.90;;;7.20;;
16963;SDS011;8598;50.508;10.436;2023-06-10T04:55:18;9.63;;;7.23;;
16963;SDS011;8598;50.508;10.436;2023-06-10T04:57:44;8.40;;;6.60;;
16963;SDS011;8598;50.508;10.436;2023-06-10T05:00:11;6.23;;;5.40;;
16963;SDS011;8598;50.508;10.436;2023-06-10T05:02:40;9.50;;;6.07;;
16963;SDS011;8598;50.508;10.436;2023-06-10T05:05:07;7.60;;;5.60;;
16963;SDS011;8598;50.508;10.436;2023-06-10T05:07:33;7.03;;;4.87;;
16963;SDS011;8598;50.508;10.436;2023-06-10T05:10:00;6.47;;;4.73;;
16963;SDS011;8598;50.508;10.436;2023-06-10T05:12:27;6.60;;;4.97;;
16963;SDS011;8598;50.508;10.436;2023-06-10T05:14:54;9.70;;;5.30;;
16963;SDS011;8598;50.508;10.436;2023-06-10T05:17:21;8.23;;;5.03;;
16963;SDS011;8598;50.508;10.436;2023-06-10T05:19:49;6.40;;;4.30;;
16963;SDS011;8598;50.508;10.436;2023-06-10T05:22:16;8.97;;;5.10;;
16963;SDS011;8598;50.508;10.436;2023-06-10T05:24:43;8.10;;;4.93;;
16963;SDS011;8598;50.508;10.436;2023-06-10T05:27:10;6.57;;;4.47;;
16963;SDS011;8598;50.508;10.436;2023-06-10T05:29:37;8.13;;;4.97;;
16963;SDS011;8598;50.508;10.436;2023-06-10T05:32:05;5.63;;;4.33;;
16963;SDS011;8598;50.508;10.436;2023-06-10T05:34:33;10.40;;;4.70;;
16963;SDS011;8598;50.508;10.436;2023-06-10T05:37:01;5.47;;;4.37;;
16963;SDS011;8598;50.508;10.436;2023-06-10T05:39:28;5.80;;;4.43;;
16963;SDS011;8598;50.508;10.436;2023-06-10T05:41:54;7.47;;;3.80;;
16963;SDS011;8598;50.508;10.436;2023-06-10T05:44:23;6.57;;;4.57;;
16963;SDS011;8598;50.508;10.436;2023-06-10T05:46:50;6.07;;;4.20;;
16963;SDS011;8598;50.508;10.436;2023-06-10T05:49:17;6.47;;;4.40;;
16963;SDS011;8598;50.508;10.436;2023-06-10T05:51:43;5.80;;;4.30;;
16963;SDS011;8598;50.508;10.436;2023-06-10T05:54:11;7.13;;;4.53;;
16963;SDS011;8598;50.508;10.436;2023-06-10T05:56:38;5.40;;;4.50;;
16963;SDS011;8598;50.508;10.436;2023-06-10T05:59:04;5.63;;;4.30;;
16963;SDS011;8598;50.508;10.436;2023-06-10T06:01:31;5.23;;;4.33;;
16963;SDS011;8598;50.508;10.436;2023-06-10T06:03:58;8.70;;;4.70;;
16963;SDS011;8598;50.508;10.436;2023-06-10T06:06:24;7.07;;;4.70;;
16963;SDS011;8598;50.508;10.436;2023-06-10T06:08:51;6.47;;;5.30;;
16963;SDS011;8598;50.508;10.436;2023-06-10T06:11:19;8.63;;;4.70;;
16963;SDS011;8598;50.508;10.436;2023-06-10T06:13:45;5.80;;;4.60;;
16963;SDS011;8598;50.508;10.436;2023-06-10T06:16:13;6.93;;;4.83;;
16963;SDS011;8598;50.508;10.436;2023-06-10T06:18:40;8.97;;;4.53;;
16963;SDS011;8598;50.508;10.436;2023-06-10T06:21:07;7.63;;;4.53;;
16963;SDS011;8598;50.508;10.436;2023-06-10T06:23:33;8.03;;;5.00;;
16963;SDS011;8598;50.508;10.436;2023-06-10T06:26:00;6.03;;;4.60;;
16963;SDS011;8598;50.508;10.436;2023-06-10T06:28:28;8.80;;;4.30;;
16963;SDS011;8598;50.508;10.436;2023-06-10T06:30:56;5.23;;;4.17;;
16963;SDS011;8598;50.508;10.436;2023-06-10T06:33:22;6.67;;;4.43;;
16963;SDS011;8598;50.508;10.436;2023-06-10T06:35:51;6.67;;;4.60;;
16963;SDS011;8598;50.508;10.436;2023-06-10T06:38:17;4.90;;;4.30;;
16963;SDS011;8598;50.508;10.436;2023-06-10T06:40:44;7.97;;;4.50;;
16963;SDS011;8598;50.508;10.436;2023-06-10T06:43:11;8.37;;;4.80;;
16963;SDS011;8598;50.508;10.436;2023-06-10T06:45:39;5.57;;;4.67;;
16963;SDS011;8598;50.508;10.436;2023-06-10T06:48:05;6.33;;;4.60;;
16963;SDS011;8598;50.508;10.436;2023-06-10T06:50:32;6.67;;;4.83;;
16963;SDS011;8598;50.508;10.436;2023-06-10T06:52:58;6.23;;;4.37;;
16963;SDS011;8598;50.508;10.436;2023-06-10T06:55:25;6.93;;;5.53;;
16963;SDS011;8598;50.508;10.436;2023-06-10T06:57:51;7.87;;;4.60;;
16963;SDS011;8598;50.508;10.436;2023-06-10T07:00:18;8.77;;;4.73;;
16963;SDS011;8598;50.508;10.436;2023-06-10T07:02:46;6.90;;;4.77;;
16963;SDS011;8598;50.508;10.436;2023-06-10T07:05:13;6.20;;;4.63;;
16963;SDS011;8598;50.508;10.436;2023-06-10T07:07:39;5.87;;;4.50;;
16963;SDS011;8598;50.508;10.436;2023-06-10T07:10:06;6.10;;;4.87;;
16963;SDS011;8598;50.508;10.436;2023-06-10T07:12:34;6.97;;;4.70;;
16963;SDS011;8598;50.508;10.436;2023-06-10T07:15:00;8.07;;;4.50;;
16963;SDS011;8598;50.508;10.436;2023-06-10T07:17:27;5.50;;;4.57;;
16963;SDS011;8598;50.508;10.436;2023-06-10T07:19:55;6.23;;;4.47;;
16963;SDS011;8598;50.508;10.436;2023-06-10T07:22:22;6.68;;;4.20;;
16963;SDS011;8598;50.508;10.436;2023-06-10T07:24:49;9.57;;;5.00;;
16963;SDS011;8598;50.508;10.436;2023-06-10T07:27:16;5.38;;;4.45;;
16963;SDS011;8598;50.508;10.436;2023-06-10T07:29:44;7.07;;;4.88;;
16963;SDS011;8598;50.508;10.436;2023-06-10T07:32:10;5.65;;;4.72;;
16963;SDS011;8598;50.508;10.436;2023-06-10T07:34:37;5.50;;;4.38;;
16963;SDS011;8598;50.508;10.436;2023-06-10T07:37:05;6.28;;;4.50;;
16963;SDS011;8598;50.508;10.436;2023-06-10T07:39:32;7.20;;;4.55;;
16963;SDS011;8598;50.508;10.436;2023-06-10T07:41:58;8.90;;;4.68;;
16963;SDS011;8598;50.508;10.436;2023-06-10T07:44:25;7.38;;;5.80;;
16963;SDS011;8598;50.508;10.436;2023-06-10T07:46:52;10.07;;;5.07;;
16963;SDS011;8598;50.508;10.436;2023-06-10T07:49:18;7.65;;;4.32;;
16963;SDS011;8598;50.508;10.436;2023-06-10T07:51:45;7.07;;;4.57;;
16963;SDS011;8598;50.508;10.436;2023-06-10T07:54:13;7.20;;;4.97;;
16963;SDS011;8598;50.508;10.436;2023-06-10T07:56:39;6.57;;;4.80;;
16963;SDS011;8598;50.508;10.436;2023-06-10T07:59:06;5.97;;;4.97;;
16963;SDS011;8598;50.508;10.436;2023-06-10T08:01:33;6.22;;;5.13;;
16963;SDS011;8598;50.508;10.436;2023-06-10T08:04:00;5.28;;;4.60;;
16963;SDS011;8598;50.508;10.436;2023-06-10T08:06:27;5.20;;;4.18;;
16963;SDS011;8598;50.508;10.436;2023-06-10T08:08:54;5.00;;;4.43;;
16963;SDS011;8598;50.508;10.436;2023-06-10T08:11:22;5.40;;;4.18;;
16963;SDS011;8598;50.508;10.436;2023-06-10T08:13:48;10.07;;;4.60;;
16963;SDS011;8598;50.508;10.436;2023-06-10T08:16:16;5.47;;;4.20;;
16963;SDS011;8598;50.508;10.436;2023-06-10T08:18:42;7.05;;;4.15;;
16963;SDS011;8598;50.508;10.436;2023-06-10T08:21:09;13.38;;;4.63;;
16963;SDS011;8598;50.508;10.436;2023-06-10T08:23:36;5.95;;;4.13;;
16963;SDS011;8598;50.508;10.436;2023-06-10T08:26:02;5.13;;;4.30;;
16963;SDS011;8598;50.508;10.436;2023-06-10T08:28:30;7.07;;;4.38;;
16963;SDS011;8598;50.508;10.436;2023-06-10T08:30:57;5.55;;;4.10;;
16963;SDS011;8598;50.508;10.436;2023-06-10T08:33:23;4.50;;;4.10;;
16963;SDS011;8598;50.508;10.436;2023-06-10T08:35:50;4.60;;;4.18;;
16963;SDS011;8598;50.508;10.436;2023-06-10T08:38:22;4.22;;;3.80;;
16963;SDS011;8598;50.508;10.436;2023-06-10T08:40:49;5.72;;;3.70;;
16963;SDS011;8598;50.508;10.436;2023-06-10T08:43:21;4.97;;;3.75;;
16963;SDS011;8598;50.508;10.436;2023-06-10T08:45:57;7.57;;;3.25;;
16963;SDS011;8598;50.508;10.436;2023-06-10T08:48:26;8.52;;;3.33;;
16963;SDS011;8598;50.508;10.436;2023-06-10T08:50:56;3.78;;;3.38;;
16963;SDS011;8598;50.508;10.436;2023-06-10T08:53:23;4.50;;;3.50;;
16963;SDS011;8598;50.508;10.436;2023-06-10T08:55:52;4.22;;;3.55;;
16963;SDS011;8598;50.508;10.436;2023-06-10T08:58:20;3.88;;;3.47;;
16963;SDS011;8598;50.508;10.436;2023-06-10T09:00:47;5.78;;;3.60;;
16963;SDS011;8598;50.508;10.436;2023-06-10T09:03:15;4.38;;;3.45;;
16963;SDS011;8598;50.508;10.436;2023-06-10T09:05:42;3.92;;;3.35;;
16963;SDS011;8598;50.508;10.436;2023-06-10T09:08:09;3.38;;;3.00;;
16963;SDS011;8598;50.508;10.436;2023-06-10T09:10:36;4.57;;;3.60;;
16963;SDS011;8598;50.508;10.436;2023-06-10T09:13:03;4.95;;;3.47;;
16963;SDS011;8598;50.508;10.436;2023-06-10T09:15:30;4.03;;;3.70;;
16963;SDS011;8598;50.508;10.436;2023-06-10T09:17:57;4.50;;;3.55;;
16963;SDS011;8598;50.508;10.436;2023-06-10T09:20:25;3.70;;;3.10;;
16963;SDS011;8598;50.508;10.436;2023-06-10T09:22:52;6.77;;;3.60;;
16963;SDS011;8598;50.508;10.436;2023-06-10T09:25:20;4.90;;;3.57;;
16963;SDS011;8598;50.508;10.436;2023-06-10T09:28:01;4.70;;;3.63;;
16963;SDS011;8598;50.508;10.436;2023-06-10T09:30:29;4.73;;;3.53;;
16963;SDS011;8598;50.508;10.436;2023-06-10T09:32:57;4.83;;;3.77;;
16963;SDS011;8598;50.508;10.436;2023-06-10T09:35:28;4.70;;;3.43;;
16963;SDS011;8598;50.508;10.436;2023-06-10T09:37:57;5.00;;;3.60;;
16963;SDS011;8598;50.508;10.436;2023-06-10T09:40:24;3.53;;;3.13;;
16963;SDS011;8598;50.508;10.436;2023-06-10T09:42:52;3.93;;;3.50;;
16963;SDS011;8598;50.508;10.436;2023-06-10T09:45:20;3.73;;;3.00;;
16963;SDS011;8598;50.508;10.436;2023-06-10T09:47:51;3.80;;;3.50;;
16963;SDS011;8598;50.508;10.436;2023-06-10T09:50:18;3.40;;;3.10;;
16963;SDS011;8598;50.508;10.436;2023-06-10T09:52:46;4.60;;;3.43;;
16963;SDS011;8598;50.508;10.436;2023-06-10T09:55:14;4.67;;;3.60;;
16963;SDS011;8598;50.508;10.436;2023-06-10T09:57:40;4.67;;;3.40;;
16963;SDS011;8598;50.508;10.436;2023-06-10T10:00:09;6.67;;;3.37;;
16963;SDS011;8598;50.508;10.436;2023-06-10T10:02:44;3.97;;;3.00;;
16963;SDS011;8598;50.508;10.436;2023-06-10T10:05:12;3.70;;;3.27;;
16963;SDS011;8598;50.508;10.436;2023-06-10T10:07:40;4.13;;;3.47;;
16963;SDS011;8598;50.508;10.436;2023-06-10T10:10:09;5.63;;;3.07;;
16963;SDS011;8598;50.508;10.436;2023-06-10T10:12:37;6.33;;;2.87;;
16963;SDS011;8598;50.508;10.436;2023-06-10T10:15:05;6.63;;;3.30;;
16963;SDS011;8598;50.508;10.436;2023-06-10T10:17:33;4.33;;;3.53;;
16963;SDS011;8598;50.508;10.436;2023-06-10T10:20:02;6.60;;;3.43;;
16963;SDS011;8598;50.508;10.436;2023-06-10T10:22:31;3.07;;;2.77;;
16963;SDS011;8598;50.508;10.436;2023-06-10T10:25:05;7.17;;;3.47;;
16963;SDS011;8598;50.508;10.436;2023-06-10T10:27:38;4.27;;;3.17;;
16963;SDS011;8598;50.508;10.436;2023-06-10T10:30:10;4.27;;;3.17;;
16963;SDS011;8598;50.508;10.436;2023-06-10T10:32:37;4.60;;;3.13;;
16963;SDS011;8598;50.508;10.436;2023-06-10T10:35:08;5.83;;;3.30;;
16963;SDS011;8598;50.508;10.436;2023-06-10T10:37:42;3.67;;;3.30;;
16963;SDS011;8598;50.508;10.436;2023-06-10T10:40:11;4.00;;;3.37;;
16963;SDS011;8598;50.508;10.436;2023-06-10T10:42:39;6.53;;;3.57;;
16963;SDS011;8598;50.508;10.436;2023-06-10T10:45:07;4.63;;;3.40;;
16963;SDS011;8598;50.508;10.436;2023-06-10T10:47:34;4.50;;;3.37;;
16963;SDS011;8598;50.508;10.436;2023-06-10T10:50:12;7.43;;;3.97;;
16963;SDS011;8598;50.508;10.436;2023-06-10T10:52:46;3.87;;;3.30;;
16963;SDS011;8598;50.508;10.436;2023-06-10T10:55:19;4.47;;;3.80;;
16963;SDS011;8598;50.508;10.436;2023-06-10T10:57:53;4.87;;;3.40;;
16963;SDS011;8598;50.508;10.436;2023-06-10T11:00:24;6.00;;;3.63;;
16963;SDS011;8598;50.508;10.436;2023-06-10T11:02:53;5.47;;;3.70;;
16963;SDS011;8598;50.508;10.436;2023-06-10T11:05:31;4.87;;;3.60;;
16963;SDS011;8598;50.508;10.436;2023-06-10T11:07:58;5.63;;;3.83;;
16963;SDS011;8598;50.508;10.436;2023-06-10T11:10:32;5.00;;;3.73;;
16963;SDS011;8598;50.508;10.436;2023-06-10T11:13:00;3.90;;;3.47;;
16963;SDS011;8598;50.508;10.436;2023-06-10T11:15:31;4.43;;;3.73;;
16963;SDS011;8598;50.508;10.436;2023-06-10T11:18:10;4.73;;;3.77;;
16963;SDS011;8598;50.508;10.436;2023-06-10T11:20:42;5.20;;;3.90;;
16963;SDS011;8598;50.508;10.436;2023-06-10T11:23:10;5.70;;;3.80;;
16963;SDS011;8598;50.508;10.436;2023-06-10T11:25:41;4.67;;;3.73;;
16963;SDS011;8598;50.508;10.436;2023-06-10T11:28:17;7.40;;;4.20;;
16963;SDS011;8598;50.508;10.436;2023-06-10T11:30:44;6.13;;;3.90;;
16963;SDS011;8598;50.508;10.436;2023-06-10T11:33:13;6.03;;;3.90;;
16963;SDS011;8598;50.508;10.436;2023-06-10T11:35:41;5.37;;;3.37;;
16963;SDS011;8598;50.508;10.436;2023-06-10T11:38:08;6.10;;;3.40;;
16963;SDS011;8598;50.508;10.436;2023-06-10T11:40:36;4.80;;;3.80;;
16963;SDS011;8598;50.508;10.436;2023-06-10T11:43:04;4.57;;;3.60;;
16963;SDS011;8598;50.508;10.436;2023-06-10T11:45:31;5.10;;;3.33;;
16963;SDS011;8598;50.508;10.436;2023-06-10T11:47:58;5.77;;;3.47;;
16963;SDS011;8598;50.508;10.436;2023-06-10T11:50:29;3.40;;;3.10;;
16963;SDS011;8598;50.508;10.436;2023-06-10T11:52:56;6.03;;;3.63;;
16963;SDS011;8598;50.508;10.436;2023-06-10T11:55:23;6.57;;;3.37;;
16963;SDS011;8598;50.508;10.436;2023-06-10T11:57:50;4.40;;;3.57;;
16963;SDS011;8598;50.508;10.436;2023-06-10T12:00:23;4.80;;;3.10;;
16963;SDS011;8598;50.508;10.436;2023-06-10T12:02:55;7.37;;;3.67;;
16963;SDS011;8598;50.508;10.436;2023-06-10T12:05:23;5.77;;;3.70;;
16963;SDS011;8598;50.508;10.436;2023-06-10T12:07:49;5.13;;;3.60;;
16963;SDS011;8598;50.508;10.436;2023-06-10T12:10:31;4.73;;;3.70;;
16963;SDS011;8598;50.508;10.436;2023-06-10T12:12:58;4.43;;;3.50;;
16963;SDS011;8598;50.508;10.436;2023-06-10T12:15:26;7.17;;;3.77;;
16963;SDS011;8598;50.508;10.436;2023-06-10T12:17:54;4.70;;;3.37;;
16963;SDS011;8598;50.508;10.436;2023-06-10T12:20:26;5.93;;;3.97;;
16963;SDS011;8598;50.508;10.436;2023-06-10T12:22:54;3.80;;;3.47;;
16963;SDS011;8598;50.508;10.436;2023-06-10T12:25:24;6.57;;;4.00;;
16963;SDS011;8598;50.508;10.436;2023-06-10T12:27:51;4.53;;;3.40;;
16963;SDS011;8598;50.508;10.436;2023-06-10T12:30:20;4.53;;;3.57;;
16963;SDS011;8598;50.508;10.436;2023-06-10T12:32:48;4.73;;;3.70;;
16963;SDS011;8598;50.508;10.436;2023-06-10T12:35:16;5.83;;;3.67;;
16963;SDS011;8598;50.508;10.436;2023-06-10T12:37:54;5.90;;;3.77;;
16963;SDS011;8598;50.508;10.436;2023-06-10T12:40:25;5.70;;;3.97;;
16963;SDS011;8598;50.508;10.436;2023-06-10T12:42:52;9.87;;;4.17;;
16963;SDS011;8598;50.508;10.436;2023-06-10T12:45:26;5.17;;;4.10;;
16963;SDS011;8598;50.508;10.436;2023-06-10T12:48:03;6.70;;;4.20;;
16963;SDS011;8598;50.508;10.436;2023-06-10T12:50:30;4.20;;;3.70;;
16963;SDS011;8598;50.508;10.436;2023-06-10T12:52:58;5.73;;;4.10;;
16963;SDS011;8598;50.508;10.436;2023-06-10T12:55:25;6.93;;;4.20;;
16963;SDS011;8598;50.508;10.436;2023-06-10T12:57:53;5.90;;;4.47;;
16963;SDS011;8598;50.508;10.436;2023-06-10T13:00:20;6.37;;;4.23;;
16963;SDS011;8598;50.508;10.436;2023-06-10T13:02:48;4.80;;;4.33;;
16963;SDS011;8598;50.508;10.436;2023-06-10T13:05:16;8.63;;;4.77;;
16963;SDS011;8598;50.508;10.436;2023-06-10T13:07:43;5.07;;;4.50;;
16963;SDS011;8598;50.508;10.436;2023-06-10T13:10:10;7.50;;;4.37;;
16963;SDS011;8598;50.508;10.436;2023-06-10T13:12:38;5.20;;;4.20;;
16963;SDS011;8598;50.508;10.436;2023-06-10T13:15:05;5.20;;;3.90;;
16963;SDS011;8598;50.508;10.436;2023-06-10T13:17:33;5.87;;;4.23;;
16963;SDS011;8598;50.508;10.436;2023-06-10T13:20:01;4.73;;;3.47;;
16963;SDS011;8598;50.508;10.436;2023-06-10T13:22:31;6.03;;;4.37;;
16963;SDS011;8598;50.508;10.436;2023-06-10T13:24:58;7.70;;;4.23;;
16963;SDS011;8598;50.508;10.436;2023-06-10T13:27:24;5.53;;;4.20;;
16963;SDS011;8598;50.508;10.436;2023-06-10T13:29:52;6.60;;;4.00;;
16963;SDS011;8598;50.508;10.436;2023-06-10T13:32:18;7.50;;;4.40;;
16963;SDS011;8598;50.508;10.436;2023-06-10T13:34:45;5.73;;;4.27;;
16963;SDS011;8598;50.508;10.436;2023-06-10T13:37:12;6.97;;;4.37;;
16963;SDS011;8598;50.508;10.436;2023-06-10T13:39:40;6.40;;;4.40;;
16963;SDS011;8598;50.508;10.436;2023-06-10T13:42:07;4.87;;;4.37;;
16963;SDS011;8598;50.508;10.436;2023-06-10T13:44:34;4.37;;;3.97;;
16963;SDS011;8598;50.508;10.436;2023-06-10T13:47:01;6.63;;;4.43;;
16963;SDS011;8598;50.508;10.436;2023-06-10T13:49:28;5.80;;;4.60;;
16963;SDS011;8598;50.508;10.436;2023-06-10T13:51:55;5.97;;;4.10;;
16963;SDS011;8598;50.508;10.436;2023-06-10T13:54:22;6.63;;;4.60;;
16963;SDS011;8598;50.508;10.436;2023-06-10T13:56:50;8.57;;;4.40;;
16963;SDS011;8598;50.508;10.436;2023-06-10T13:59:18;7.23;;;4.27;;
16963;SDS011;8598;50.508;10.436;2023-06-10T14:01:45;9.70;;;4.80;;
16963;SDS011;8598;50.508;10.436;2023-06-10T14:04:11;4.83;;;4.33;;
16963;SDS011;8598;50.508;10.436;2023-06-10T14:06:38;7.30;;;5.60;;
16963;SDS011;8598;50.508;10.436;2023-06-10T14:09:05;8.73;;;5.80;;
16963;SDS011;8598;50.508;10.436;2023-06-10T14:11:31;6.93;;;5.37;;
16963;SDS011;8598;50.508;10.436;2023-06-10T14:13:59;8.53;;;6.00;;
16963;SDS011;8598;50.508;10.436;2023-06-10T14:16:26;9.57;;;6.77;;
16963;SDS011;8598;50.508;10.436;2023-06-10T14:18:53;12.37;;;6.40;;
16963;SDS011;8598;50.508;10.436;2023-06-10T14:21:20;9.43;;;6.53;;
16963;SDS011;8598;50.508;10.436;2023-06-10T14:23:47;8.23;;;6.20;;
16963;SDS011;8598;50.508;10.436;2023-06-10T14:26:14;11.17;;;6.90;;
16963;SDS011;8598;50.508;10.436;2023-06-10T14:28:40;8.50;;;6.20;;
16963;SDS011;8598;50.508;10.436;2023-06-10T14:31:08;6.53;;;5.80;;
16963;SDS011;8598;50.508;10.436;2023-06-10T14:33:35;6.77;;;5.63;;
16963;SDS011;8598;50.508;10.436;2023-06-10T14:36:02;8.93;;;5.40;;
16963;SDS011;8598;50.508;10.436;2023-06-10T14:38:29;9.27;;;5.10;;
16963;SDS011;8598;50.508;10.436;2023-06-10T14:40:55;6.70;;;5.10;;
16963;SDS011;8598;50.508;10.436;2023-06-10T14:43:23;5.90;;;5.30;;
16963;SDS011;8598;50.508;10.436;2023-06-10T14:45:50;6.37;;;4.97;;
16963;SDS011;8598;50.508;10.436;2023-06-10T14:48:18;7.77;;;4.43;;